Goliah — WDD5908 — position and weather

sailwx.info

Track history (hours):
 
Tides and Currents Weather Stations Pressure Air Temp Water Temp Dewpoint Dewpoint Depression Visibility Wind Speed Wind Dir Waves Ship Positions

Goliah

Owner: Crowley Marine Services, Seattle, WA. More information available from US FCC via Universal Licensing System and Coast Guard Vessel Documentation Center.

Last reported at 2016-Apr-29 13:34 UTC. Time now 2016-Apr-29 14:01 UTC.
Position N 33°45' W 118°12'.

Length 33 m; draft 4.8 m.

Type: Tug. MMSI: 366898250.

Date/timePositionNaut miles runAvg speedWind from/ knotsBaromVisibWave heightAir tempDewpointWater temp
2016-Apr-29 13:34N 33°45' W 118°12'1 0.8
2016-Apr-29 12:34N 33°44' W 118°13'2 2.1
2016-Apr-29 11:34N 33°44' W 118°11'2 1.6
2016-Apr-29 10:33N 33°44' W 118°13'1 0.7
2016-Apr-29 09:33N 33°45' W 118°13'0 0.2
2016-Apr-29 08:33N 33°45' W 118°13'1 1.2
2016-Apr-29 07:33N 33°44' W 118°13'3 0.6
2016-Apr-29 01:33N 33°44' W 118°17'1 1.5
2016-Apr-29 00:32N 33°43' W 118°16'2 1.9
2016-Apr-28 23:32N 33°44' W 118°14'1 1.5
2016-Apr-28 22:33N 33°45' W 118°13'0 0.3
2016-Apr-28 21:34N 33°45' W 118°13'1 0.3
2016-Apr-28 17:30N 33°44' W 118°13'1 0.7
2016-Apr-28 16:33N 33°44' W 118°12'0 0.5
2016-Apr-28 15:32N 33°45' W 118°13'0 0.5
2016-Apr-28 14:33N 33°45' W 118°13'0 0.0
2016-Apr-28 13:33N 33°45' W 118°13'1 1.5
2016-Apr-28 12:33N 33°46' W 118°14'2 2.0
2016-Apr-28 11:33N 33°44' W 118°13'3 0.3
2016-Apr-28 03:33N 33°45' W 118°16'0 0.2
2016-Apr-28 02:33N 33°45' W 118°16'1 0.4
2016-Apr-28 00:33N 33°46' W 118°15'1 0.4
2016-Apr-27 22:33N 33°46' W 118°16'1 0.7
2016-Apr-27 20:32N 33°44' W 118°17'0 0.0
2016-Apr-27 19:32N 33°44' W 118°17'0 0.0
2016-Apr-27 18:26N 33°44' W 118°17'0 0.0
2016-Apr-27 17:13N 33°44' W 118°17'0 0.0
2016-Apr-27 16:25N 33°44' W 118°17'0 0.0
2016-Apr-27 15:30N 33°44' W 118°17'2 1.1
2016-Apr-27 13:33N 33°46' W 118°15'2 1.9
2016-Apr-27 12:33N 33°44' W 118°17'1 0.8
2016-Apr-27 11:11N 33°44' W 118°16'0 0.2
2016-Apr-27 10:33N 33°44' W 118°16'1 0.4
2016-Apr-27 07:31N 33°44' W 118°17'0 0.0
2016-Apr-27 06:21N 33°44' W 118°17'0 0.0
2016-Apr-27 05:33N 33°44' W 118°17'0 0.0
2016-Apr-27 04:33N 33°44' W 118°17'0 0.0
2016-Apr-27 03:31N 33°44' W 118°17'0 0.0
2016-Apr-27 02:33N 33°44' W 118°17'0 0.0
2016-Apr-27 01:33N 33°44' W 118°17'0 0.0
2016-Apr-27 00:33N 33°44' W 118°17'0 0.0
2016-Apr-26 23:33N 33°44' W 118°17'1 1.3
2016-Apr-26 22:33N 33°44' W 118°15'1 1.2
2016-Apr-26 21:33N 33°43' W 118°15'2 1.1
2016-Apr-26 19:33N 33°44' W 118°17'0 0.0
2016-Apr-26 18:33N 33°44' W 118°17'3 2.4
2016-Apr-26 17:20N 33°44' W 118°13'2 2.1
2016-Apr-26 16:33N 33°45' W 118°12'0 0.0
2016-Apr-26 15:33N 33°45' W 118°12'0 0.2
2016-Apr-26 14:33N 33°45' W 118°12'1 0.6
2016-Apr-26 13:33N 33°44' W 118°12'4 0.7
2016-Apr-26 08:20N 33°44' W 118°17'3 4.0
2016-Apr-26 07:33N 33°45' W 118°13'0 0.3
2016-Apr-26 06:33N 33°45' W 118°13'0 0.4
2016-Apr-26 05:33N 33°45' W 118°13'1 0.6
2016-Apr-26 04:33N 33°45' W 118°13'0 0.0
2016-Apr-26 03:33N 33°45' W 118°13'0 0.0
2016-Apr-26 02:33N 33°45' W 118°13'1 0.6
2016-Apr-26 01:33N 33°45' W 118°14'0 0.4
2016-Apr-26 00:33N 33°45' W 118°13'3 1.1
2016-Apr-25 22:11N 33°44' W 118°17'1 1.3
2016-Apr-25 21:32N 33°45' W 118°16'1 0.2
2016-Apr-25 17:26N 33°44' W 118°17'0 0.0
2016-Apr-25 16:26N 33°44' W 118°17'0 0.0
2016-Apr-25 15:08N 33°44' W 118°17'1 0.6
2016-Apr-25 13:33N 33°45' W 118°16'1 0.1
2016-Apr-24 22:33N 33°44' W 118°17'1 0.7
2016-Apr-24 21:33N 33°45' W 118°16'1 0.6
2016-Apr-24 20:27N 33°44' W 118°17'0 0.0
2016-Apr-24 19:31N 33°44' W 118°17'0 0.0
2016-Apr-24 18:33N 33°44' W 118°17'0 0.0
2016-Apr-24 17:33N 33°44' W 118°17'3 1.0
2016-Apr-24 14:28N 33°45' W 118°13'1 1.6
2016-Apr-24 13:33N 33°46' W 118°14'2 1.9
2016-Apr-24 12:32N 33°44' W 118°13'3 2.6
2016-Apr-24 11:30N 33°45' W 118°16'1 0.3
2016-Apr-24 08:07N 33°44' W 118°17'0 0.0
2016-Apr-24 03:33N 33°44' W 118°17'2 1.3
2016-Apr-24 02:16N 33°46' W 118°16'3 1.4
2016-Apr-24 00:27N 33°45' W 118°13'0 0.1
2016-Apr-23 23:29N 33°45' W 118°13'3 0.2
2016-Apr-23 10:10N 33°46' W 118°16'0 0.6
2016-Apr-23 09:25N 33°45' W 118°16'1 0.9
2016-Apr-23 08:25N 33°46' W 118°15'3 0.6
2016-Apr-23 04:29N 33°45' W 118°12'2 0.4
2016-Apr-23 00:14N 33°46' W 118°14'3 0.2
2016-Apr-22 11:27N 33°44' W 118°14'2 2.1
2016-Apr-22 10:33N 33°45' W 118°13'0 0.0
2016-Apr-22 09:27N 33°45' W 118°13'2 2.7
2016-Apr-22 08:32N 33°44' W 118°11'5 2.0
2016-Apr-22 06:16N 33°44' W 118°17'0 0.0
2016-Apr-22 05:20N 33°44' W 118°17'0 0.0
2016-Apr-22 04:33N 33°44' W 118°17'0 0.0
2016-Apr-22 03:28N 33°44' W 118°17'1 0.9
2016-Apr-22 02:33N 33°45' W 118°16'1 1.0
2016-Apr-22 01:33N 33°46' W 118°15'3 2.9
2016-Apr-22 00:30N 33°43' W 118°15'0 0.5
2016-Apr-21 23:33N 33°43' W 118°15'2 1.8
2016-Apr-21 22:31N 33°44' W 118°17'0 0.3
2016-Apr-21 21:32N 33°45' W 118°17'0 0.3
2016-Apr-21 20:33N 33°44' W 118°17'0 0.0
2016-Apr-21 19:33N 33°44' W 118°17'0 0.0
2016-Apr-21 18:33N 33°44' W 118°17'0 0.0
2016-Apr-21 17:33N 33°44' W 118°17'0 0.0
2016-Apr-21 16:33N 33°44' W 118°17'1 1.0
2016-Apr-21 15:32N 33°43' W 118°16'3 3.4
2016-Apr-21 14:32N 33°45' W 118°13'3 2.9
2016-Apr-21 13:34N 33°43' W 118°11'1 1.0
2016-Apr-21 12:33N 33°42' W 118°10'6 6.1
2016-Apr-21 11:33N 33°44' W 118°17'0 0.0
2016-Apr-21 10:33N 33°44' W 118°17'0 0.0
2016-Apr-21 09:33N 33°44' W 118°17'0 0.0
2016-Apr-21 08:33N 33°44' W 118°17'0 0.0
2016-Apr-21 07:33N 33°44' W 118°17'0 0.0
2016-Apr-21 06:32N 33°44' W 118°17'0 0.0
2016-Apr-21 05:33N 33°44' W 118°17'0 0.0
2016-Apr-21 04:33N 33°44' W 118°17'0 0.0
2016-Apr-21 03:29N 33°44' W 118°17'0 0.0
2016-Apr-21 02:19N 33°44' W 118°17'0 0.0
2016-Apr-21 01:15N 33°44' W 118°17'2 2.1
2016-Apr-21 00:30N 33°46' W 118°16'0 0.1
2016-Apr-20 23:19N 33°46' W 118°16'4 0.9
2016-Apr-20 19:18N 33°43' W 118°13'2 3.2
2016-Apr-20 18:33N 33°46' W 118°13'1 0.6
2016-Apr-20 17:33N 33°46' W 118°13'1 1.3
2016-Apr-20 16:33N 33°45' W 118°13'1 1.2
2016-Apr-20 15:33N 33°44' W 118°13'3 2.7
2016-Apr-20 14:33N 33°44' W 118°17'0 0.0
2016-Apr-20 13:33N 33°44' W 118°17'0 0.0
2016-Apr-20 12:33N 33°44' W 118°17'1 1.0
2016-Apr-20 11:33N 33°45' W 118°16'2 1.7
2016-Apr-20 10:33N 33°44' W 118°16'4 3.6
2016-Apr-20 09:33N 33°42' W 118°12'4 4.3
2016-Apr-20 08:34N 33°44' W 118°17'0 0.0
2016-Apr-20 07:34N 33°44' W 118°17'0 0.0
2016-Apr-20 06:34N 33°44' W 118°17'0 0.0
2016-Apr-20 05:27N 33°44' W 118°17'0 0.0
2016-Apr-20 04:32N 33°44' W 118°17'0 0.0
2016-Apr-20 03:27N 33°44' W 118°17'1 0.1
2016-Apr-19 20:09N 33°43' W 118°16'1 1.2
2016-Apr-19 19:33N 33°43' W 118°16'2 0.7
2016-Apr-19 17:15N 33°44' W 118°17'0 0.0
2016-Apr-19 16:32N 33°44' W 118°17'0 0.0
2016-Apr-19 15:33N 33°44' W 118°17'1 1.2
2016-Apr-19 14:34N 33°46' W 118°17'  
Track history (hours):
 
Tides and Currents Weather Stations Pressure Air Temp Water Temp Dewpoint Dewpoint Depression Visibility Wind Speed Wind Dir Waves Ship Positions

Goliah

Owner: Crowley Marine Services, Seattle, WA. More information available from US FCC via Universal Licensing System and Coast Guard Vessel Documentation Center.

Last reported at 2016-Apr-29 13:34 UTC. Time now 2016-Apr-29 14:01 UTC.
Position N 33°45' W 118°12'.

Length 33 m; draft 4.8 m.

Type: Tug. MMSI: 366898250.

Date/timePositionNaut miles runAvg speedWind from/ knotsBaromVisibWave heightAir tempDewpointWater temp
2016-Apr-29 13:34N 33°45' W 118°12'1 0.8
2016-Apr-29 12:34N 33°44' W 118°13'2 2.1
2016-Apr-29 11:34N 33°44' W 118°11'2 1.6
2016-Apr-29 10:33N 33°44' W 118°13'1 0.7
2016-Apr-29 09:33N 33°45' W 118°13'0 0.2
2016-Apr-29 08:33N 33°45' W 118°13'1 1.2
2016-Apr-29 07:33N 33°44' W 118°13'3 0.6
2016-Apr-29 01:33N 33°44' W 118°17'1 1.5
2016-Apr-29 00:32N 33°43' W 118°16'2 1.9
2016-Apr-28 23:32N 33°44' W 118°14'1 1.5
2016-Apr-28 22:33N 33°45' W 118°13'0 0.3
2016-Apr-28 21:34N 33°45' W 118°13'1 0.3
2016-Apr-28 17:30N 33°44' W 118°13'1 0.7
2016-Apr-28 16:33N 33°44' W 118°12'0 0.5
2016-Apr-28 15:32N 33°45' W 118°13'0 0.5
2016-Apr-28 14:33N 33°45' W 118°13'0 0.0
2016-Apr-28 13:33N 33°45' W 118°13'1 1.5
2016-Apr-28 12:33N 33°46' W 118°14'2 2.0
2016-Apr-28 11:33N 33°44' W 118°13'3 0.3
2016-Apr-28 03:33N 33°45' W 118°16'0 0.2
2016-Apr-28 02:33N 33°45' W 118°16'1 0.4
2016-Apr-28 00:33N 33°46' W 118°15'1 0.4
2016-Apr-27 22:33N 33°46' W 118°16'1 0.7
2016-Apr-27 20:32N 33°44' W 118°17'0 0.0
2016-Apr-27 19:32N 33°44' W 118°17'0 0.0
2016-Apr-27 18:26N 33°44' W 118°17'0 0.0
2016-Apr-27 17:13N 33°44' W 118°17'0 0.0
2016-Apr-27 16:25N 33°44' W 118°17'0 0.0
2016-Apr-27 15:30N 33°44' W 118°17'2 1.1
2016-Apr-27 13:33N 33°46' W 118°15'2 1.9
2016-Apr-27 12:33N 33°44' W 118°17'1 0.8
2016-Apr-27 11:11N 33°44' W 118°16'0 0.2
2016-Apr-27 10:33N 33°44' W 118°16'1 0.4
2016-Apr-27 07:31N 33°44' W 118°17'0 0.0
2016-Apr-27 06:21N 33°44' W 118°17'0 0.0
2016-Apr-27 05:33N 33°44' W 118°17'0 0.0
2016-Apr-27 04:33N 33°44' W 118°17'0 0.0
2016-Apr-27 03:31N 33°44' W 118°17'0 0.0
2016-Apr-27 02:33N 33°44' W 118°17'0 0.0
2016-Apr-27 01:33N 33°44' W 118°17'0 0.0
2016-Apr-27 00:33N 33°44' W 118°17'0 0.0
2016-Apr-26 23:33N 33°44' W 118°17'1 1.3
2016-Apr-26 22:33N 33°44' W 118°15'1 1.2
2016-Apr-26 21:33N 33°43' W 118°15'2 1.1
2016-Apr-26 19:33N 33°44' W 118°17'0 0.0
2016-Apr-26 18:33N 33°44' W 118°17'3 2.4
2016-Apr-26 17:20N 33°44' W 118°13'2 2.1
2016-Apr-26 16:33N 33°45' W 118°12'0 0.0
2016-Apr-26 15:33N 33°45' W 118°12'0 0.2
2016-Apr-26 14:33N 33°45' W 118°12'1 0.6
2016-Apr-26 13:33N 33°44' W 118°12'4 0.7
2016-Apr-26 08:20N 33°44' W 118°17'3 4.0
2016-Apr-26 07:33N 33°45' W 118°13'0 0.3
2016-Apr-26 06:33N 33°45' W 118°13'0 0.4
2016-Apr-26 05:33N 33°45' W 118°13'1 0.6
2016-Apr-26 04:33N 33°45' W 118°13'0 0.0
2016-Apr-26 03:33N 33°45' W 118°13'0 0.0
2016-Apr-26 02:33N 33°45' W 118°13'1 0.6
2016-Apr-26 01:33N 33°45' W 118°14'0 0.4
2016-Apr-26 00:33N 33°45' W 118°13'3 1.1
2016-Apr-25 22:11N 33°44' W 118°17'1 1.3
2016-Apr-25 21:32N 33°45' W 118°16'1 0.2
2016-Apr-25 17:26N 33°44' W 118°17'0 0.0
2016-Apr-25 16:26N 33°44' W 118°17'0 0.0
2016-Apr-25 15:08N 33°44' W 118°17'1 0.6
2016-Apr-25 13:33N 33°45' W 118°16'1 0.1
2016-Apr-24 22:33N 33°44' W 118°17'1 0.7
2016-Apr-24 21:33N 33°45' W 118°16'1 0.6
2016-Apr-24 20:27N 33°44' W 118°17'0 0.0
2016-Apr-24 19:31N 33°44' W 118°17'0 0.0
2016-Apr-24 18:33N 33°44' W 118°17'0 0.0
2016-Apr-24 17:33N 33°44' W 118°17'3 1.0
2016-Apr-24 14:28N 33°45' W 118°13'1 1.6
2016-Apr-24 13:33N 33°46' W 118°14'2 1.9
2016-Apr-24 12:32N 33°44' W 118°13'3 2.6
2016-Apr-24 11:30N 33°45' W 118°16'1 0.3
2016-Apr-24 08:07N 33°44' W 118°17'0 0.0
2016-Apr-24 03:33N 33°44' W 118°17'2 1.3
2016-Apr-24 02:16N 33°46' W 118°16'3 1.4
2016-Apr-24 00:27N 33°45' W 118°13'0 0.1
2016-Apr-23 23:29N 33°45' W 118°13'3 0.2
2016-Apr-23 10:10N 33°46' W 118°16'0 0.6
2016-Apr-23 09:25N 33°45' W 118°16'1 0.9
2016-Apr-23 08:25N 33°46' W 118°15'3 0.6
2016-Apr-23 04:29N 33°45' W 118°12'2 0.4
2016-Apr-23 00:14N 33°46' W 118°14'3 0.2
2016-Apr-22 11:27N 33°44' W 118°14'2 2.1
2016-Apr-22 10:33N 33°45' W 118°13'0 0.0
2016-Apr-22 09:27N 33°45' W 118°13'2 2.7
2016-Apr-22 08:32N 33°44' W 118°11'5 2.0
2016-Apr-22 06:16N 33°44' W 118°17'0 0.0
2016-Apr-22 05:20N 33°44' W 118°17'0 0.0
2016-Apr-22 04:33N 33°44' W 118°17'0 0.0
2016-Apr-22 03:28N 33°44' W 118°17'1 0.9
2016-Apr-22 02:33N 33°45' W 118°16'1 1.0
2016-Apr-22 01:33N 33°46' W 118°15'3 2.9
2016-Apr-22 00:30N 33°43' W 118°15'0 0.5
2016-Apr-21 23:33N 33°43' W 118°15'2 1.8
2016-Apr-21 22:31N 33°44' W 118°17'0 0.3
2016-Apr-21 21:32N 33°45' W 118°17'0 0.3
2016-Apr-21 20:33N 33°44' W 118°17'0 0.0
2016-Apr-21 19:33N 33°44' W 118°17'0 0.0
2016-Apr-21 18:33N 33°44' W 118°17'0 0.0
2016-Apr-21 17:33N 33°44' W 118°17'0 0.0
2016-Apr-21 16:33N 33°44' W 118°17'1 1.0
2016-Apr-21 15:32N 33°43' W 118°16'3 3.4
2016-Apr-21 14:32N 33°45' W 118°13'3 2.9
2016-Apr-21 13:34N 33°43' W 118°11'1 1.0
2016-Apr-21 12:33N 33°42' W 118°10'6 6.1
2016-Apr-21 11:33N 33°44' W 118°17'0 0.0
2016-Apr-21 10:33N 33°44' W 118°17'0 0.0
2016-Apr-21 09:33N 33°44' W 118°17'0 0.0
2016-Apr-21 08:33N 33°44' W 118°17'0 0.0
2016-Apr-21 07:33N 33°44' W 118°17'0 0.0
2016-Apr-21 06:32N 33°44' W 118°17'0 0.0
2016-Apr-21 05:33N 33°44' W 118°17'0 0.0
2016-Apr-21 04:33N 33°44' W 118°17'0 0.0
2016-Apr-21 03:29N 33°44' W 118°17'0 0.0
2016-Apr-21 02:19N 33°44' W 118°17'0 0.0
2016-Apr-21 01:15N 33°44' W 118°17'2 2.1
2016-Apr-21 00:30N 33°46' W 118°16'0 0.1
2016-Apr-20 23:19N 33°46' W 118°16'4 0.9
2016-Apr-20 19:18N 33°43' W 118°13'2 3.2
2016-Apr-20 18:33N 33°46' W 118°13'1 0.6
2016-Apr-20 17:33N 33°46' W 118°13'1 1.3
2016-Apr-20 16:33N 33°45' W 118°13'1 1.2
2016-Apr-20 15:33N 33°44' W 118°13'3 2.7
2016-Apr-20 14:33N 33°44' W 118°17'0 0.0
2016-Apr-20 13:33N 33°44' W 118°17'0 0.0
2016-Apr-20 12:33N 33°44' W 118°17'1 1.0
2016-Apr-20 11:33N 33°45' W 118°16'2 1.7
2016-Apr-20 10:33N 33°44' W 118°16'4 3.6
2016-Apr-20 09:33N 33°42' W 118°12'4 4.3
2016-Apr-20 08:34N 33°44' W 118°17'0 0.0
2016-Apr-20 07:34N 33°44' W 118°17'0 0.0
2016-Apr-20 06:34N 33°44' W 118°17'0 0.0
2016-Apr-20 05:27N 33°44' W 118°17'0 0.0
2016-Apr-20 04:32N 33°44' W 118°17'0 0.0
2016-Apr-20 03:27N 33°44' W 118°17'1 0.1
2016-Apr-19 20:09N 33°43' W 118°16'1 1.2
2016-Apr-19 19:33N 33°43' W 118°16'2 0.7
2016-Apr-19 17:15N 33°44' W 118°17'0 0.0
2016-Apr-19 16:32N 33°44' W 118°17'0 0.0
2016-Apr-19 15:33N 33°44' W 118°17'1 1.2
2016-Apr-19 14:34N 33°46' W 118°17'  

Dump ship's entire track history